Portada
METAR-TAF:

METAR-TAF

Aeroports :

Baroda, Índia

latitud: 22-19-46N, longitud: 73-13-10E, altitud: 39 m

Observació

L'informe es va fer fa 5 hores i 50 minuts, a les 16:00 UTC
Vent 5 kt del Nord-Est
Temperatura 26°C
Humitat 51%
Pressió 1015 hPa
Visibilitat: 6000 m

METAR: VABO 171600Z 04005KT 6000 NSC 26/15 Q1015 NOSIG

Hora: 03:20 (21:50 UTC)

Pronòstic

L'informe es va fer fa 1 hora i 50 minuts, a les 20:00 UTC
Pronòstic vàlid del 17 a les 21 UTC al 18 a les 06 UTC
Vent 8 kt del Nord-Est
Visibilitat: 6000 m
Evolucionant progressivament
l' 18 a les 01 UTC al 18 a les 03 UTC
Vent 6 kt del Nord-Est
Visibilitat: 4000 m
calitja
Evolucionant progressivament
l' 18 a les 04 UTC al 18 a les 06 UTC
Vent 6 kt del Nord-Oest
Visibilitat: 6000 m

TAF: VABO 172000Z 1721/1806 04008KT 6000 NSC BECMG 1801/1803 05006KT 4000 HZ BECMG 1804/1806 32006KT 6000

Observacions i pronòstics meteorològics de més de 4000 aeroports (METAR i TAF).

Les estacions disponibles són els punts grocs i vermells al mapa.

Posi el ratolí al punt desitjat per veure el nom de l'estació.

Feu clic per veure les observacions i els pronòstics meteorològics.

Per canviar el mapa: feu clic els botons verds amb una creu de color negre per apropar; al botó verd amb un guió per allunyar la imatge; o en les fletxes verdes per a mapes adjacents.


METAR-TAF: